Time;durP1;ratioP1;P1;durP2;ratioP2;P2;SDS_P1;SDS_P2;PMS_P1;PMS_P2;Temp;Humidity;BMP_temperature;BMP_pressure;BME280_temperature;BME280_humidity;BME280_pressure;Samples;Min_cycle;Max_cycle;Signal;HPM_P1;HPM_P2
2023/04/11 00:02:14;;;;;;;19.70;5.00;;;;;;;42.45;33.83;100876.59;5010749;28;20431;-81
2023/04/11 00:04:40;;;;;;;10.47;5.00;;;;;;;42.49;33.93;100872.06;5011935;28;20417;-81
2023/04/11 00:07:06;;;;;;;13.40;4.77;;;;;;;42.58;33.71;100869.28;5010832;28;20435;-81
2023/04/11 00:09:33;;;;;;;14.33;5.10;;;;;;;42.62;33.74;100872.91;5010627;28;20565;-82
2023/04/11 00:12:00;;;;;;;16.60;5.20;;;;;;;42.62;33.85;100870.19;5010634;28;20816;-83
2023/04/11 00:14:27;;;;;;;15.40;5.20;;;;;;;42.73;33.37;100863.16;5014045;28;20460;-80
2023/04/11 00:16:53;;;;;;;18.03;6.93;;;;;;;42.65;33.00;100859.38;5004299;28;20499;-81
2023/04/11 00:19:24;;;;;;;9.37;4.93;;;;;;;42.62;33.77;100862.00;5010847;28;20540;-80
2023/04/11 00:21:50;;;;;;;10.90;4.50;;;;;;;42.37;33.99;100856.47;5014256;28;20432;-81
2023/04/11 00:24:17;;;;;;;14.97;5.73;;;;;;;42.43;33.75;100851.59;5014036;28;20424;-82
2023/04/11 00:26:43;;;;;;;14.97;5.87;;;;;;;42.49;33.83;100854.91;5013766;28;20420;-81
2023/04/11 00:29:09;;;;;;;8.70;4.07;;;;;;;42.43;33.62;100859.78;5013791;28;20432;-81
2023/04/11 00:31:35;;;;;;;13.73;5.73;;;;;;;42.40;33.82;100850.34;5013016;28;20928;-82
2023/04/11 00:34:01;;;;;;;11.57;4.53;;;;;;;42.28;34.36;100846.78;5013164;28;20515;-81
2023/04/11 00:36:27;;;;;;;15.33;5.37;;;;;;;42.30;34.12;100841.81;5013995;28;20192;-81
2023/04/11 00:38:53;;;;;;;13.17;5.17;;;;;;;42.19;34.28;100836.00;5012959;28;20455;-81
2023/04/11 00:41:20;;;;;;;19.93;5.70;;;;;;;42.22;33.92;100837.22;5015108;28;20662;-81
2023/04/11 00:43:46;;;;;;;16.10;6.40;;;;;;;42.14;34.83;100830.72;5008910;28;20417;-81
2023/04/11 00:46:13;;;;;;;18.80;8.40;;;;;;;42.21;34.42;100830.97;5005369;28;20420;-81
2023/04/11 00:48:40;;;;;;;14.23;5.13;;;;;;;42.14;34.62;100822.53;5013464;28;20820;-83
2023/04/11 00:51:06;;;;;;;8.40;4.17;;;;;;;42.09;34.72;100811.84;5013613;28;20963;-81
2023/04/11 00:53:34;;;;;;;12.67;4.33;;;;;;;41.96;34.83;100808.28;4999839;28;20467;-82
2023/04/11 00:56:00;;;;;;;9.70;4.00;;;;;;;41.72;34.71;100808.97;5004015;28;20424;-80
2023/04/11 00:58:27;;;;;;;12.33;4.50;;;;;;;41.77;34.69;100803.34;5011275;28;20809;-81
2023/04/11 01:00:53;;;;;;;14.37;4.50;;;;;;;41.80;34.71;100799.13;5013438;28;20420;-81
2023/04/11 01:03:20;;;;;;;10.43;4.63;;;;;;;41.78;35.38;100810.38;5012712;28;20413;-81
2023/04/11 01:05:48;;;;;;;14.73;4.87;;;;;;;41.88;35.74;100802.94;5001920;28;20441;-81
2023/04/11 01:08:15;;;;;;;12.40;4.70;;;;;;;41.77;35.29;100800.63;5011692;28;20413;-81
2023/04/11 01:10:41;;;;;;;10.60;4.80;;;;;;;41.86;35.17;100809.50;5012950;28;20967;-82
2023/04/11 01:13:09;;;;;;;15.30;6.83;;;;;;;41.93;34.80;100799.97;5012287;28;20507;-83
2023/04/11 01:15:34;;;;;;;14.97;5.53;;;;;;;41.69;35.42;100801.47;5012504;28;20471;-82
2023/04/11 01:18:01;;;;;;;12.70;5.10;;;;;;;41.93;34.96;100797.25;5012225;28;20417;-81
2023/04/11 01:20:28;;;;;;;13.33;4.70;;;;;;;41.98;34.88;100808.75;5014284;28;20432;-81
2023/04/11 01:22:57;;;;;;;13.90;5.17;;;;;;;41.98;34.71;100803.28;5012890;28;20495;-81
2023/04/11 01:25:24;;;;;;;18.07;5.03;;;;;;;41.78;34.88;100793.25;5011996;28;20583;-80
2023/04/11 01:27:51;;;;;;;13.43;4.83;;;;;;;41.71;35.11;100799.19;5012734;28;20426;-81
2023/04/11 01:30:17;;;;;;;15.13;4.80;;;;;;;42.03;35.16;100796.84;5012651;28;20428;-80
2023/04/11 01:32:43;;;;;;;12.50;4.90;;;;;;;41.85;35.17;100788.84;5012512;28;20583;-81
2023/04/11 01:35:11;;;;;;;19.67;5.20;;;;;;;41.98;35.50;100786.94;5013387;28;20723;-80
2023/04/11 01:37:37;;;;;;;23.20;8.23;;;;;;;41.98;35.48;100778.75;5014131;28;20404;-79
2023/04/11 01:40:04;;;;;;;14.70;7.50;;;;;;;42.06;35.27;100782.56;5013757;28;20955;-80
2023/04/11 01:42:32;;;;;;;21.60;5.53;;;;;;;42.03;35.47;100783.22;5013399;28;20417;-83
2023/04/11 01:44:59;;;;;;;11.40;5.50;;;;;;;41.86;35.05;100784.19;4993553;28;20460;-80
2023/04/11 01:47:25;;;;;;;14.93;5.83;;;;;;;42.00;35.01;100781.97;5012572;28;20429;-81
2023/04/11 01:49:52;;;;;;;10.80;4.30;;;;;;;41.68;35.27;100778.09;5012185;28;20428;-80
2023/04/11 01:52:18;;;;;;;12.23;4.50;;;;;;;41.99;34.99;100776.84;5005279;28;20429;-81
2023/04/11 01:54:44;;;;;;;11.90;3.87;;;;;;;41.99;34.95;100780.38;5006028;28;20427;-81
2023/04/11 01:57:10;;;;;;;13.03;5.00;;;;;;;41.86;35.15;100789.63;5012081;28;20519;-82
2023/04/11 01:59:36;;;;;;;9.37;5.13;;;;;;;42.08;34.89;100772.91;4998701;28;20877;-82
2023/04/11 02:02:02;;;;;;;10.83;4.60;;;;;;;41.94;35.30;100787.97;5012346;28;20424;-80
2023/04/11 02:04:28;;;;;;;8.93;4.00;;;;;;;41.93;35.42;100791.81;4998471;28;20277;-81
2023/04/11 02:06:54;;;;;;;9.40;4.93;;;;;;;41.81;35.65;100787.94;5012448;28;20456;-83
2023/04/11 02:09:19;;;;;;;12.53;4.70;;;;;;;41.63;35.63;100791.91;5011748;28;20209;-80
2023/04/11 02:11:45;;;;;;;12.90;5.17;;;;;;;41.70;35.51;100800.34;5011757;28;20572;-81
2023/04/11 02:14:15;;;;;;;16.60;5.07;;;;;;;41.57;35.53;100796.75;5011772;28;20256;-80
2023/04/11 02:16:54;;;;;;;11.60;4.47;;;;;;;41.85;35.37;100788.84;5011805;28;20229;-81
2023/04/11 02:19:22;;;;;;;13.03;5.23;;;;;;;41.84;35.55;100787.25;5011980;28;20435;-83
2023/04/11 02:21:48;;;;;;;12.90;4.20;;;;;;;42.01;35.34;100782.75;5011993;28;20475;-83
2023/04/11 02:24:14;;;;;;;15.30;4.70;;;;;;;41.93;34.79;100789.06;5011381;28;20432;-81
2023/04/11 02:26:41;;;;;;;12.10;5.30;;;;;;;42.02;35.06;100787.06;5011715;28;20474;-82
2023/04/11 02:29:07;;;;;;;15.40;5.30;;;;;;;41.90;35.54;100793.28;5011165;28;20435;-82
2023/04/11 02:31:33;;;;;;;16.33;7.00;;;;;;;41.96;35.41;100791.94;5011611;28;21018;-80
2023/04/11 02:33:59;;;;;;;14.20;5.37;;;;;;;41.83;35.76;100787.59;5011483;28;20452;-82
2023/04/11 02:36:27;;;;;;;10.87;5.30;;;;;;;41.88;35.54;100787.38;5011041;28;20423;-81
2023/04/11 02:38:53;;;;;;;11.67;3.40;;;;;;;41.79;35.75;100782.00;5011475;28;20251;-81
2023/04/11 02:41:19;;;;;;;18.90;5.97;;;;;;;41.71;36.25;100776.63;5011685;28;20428;-81
2023/04/11 02:43:45;;;;;;;14.93;4.90;;;;;;;41.86;35.93;100781.44;5011165;28;20440;-80
2023/04/11 02:46:11;;;;;;;13.70;4.90;;;;;;;41.88;35.25;100781.94;5011606;28;20448;-81
2023/04/11 02:48:37;;;;;;;10.70;5.10;;;;;;;41.70;35.37;100788.66;5011355;28;20419;-82
2023/04/11 02:51:03;;;;;;;10.17;4.30;;;;;;;41.82;34.94;100783.28;5011432;28;20442;-81
2023/04/11 02:53:29;;;;;;;13.10;5.63;;;;;;;41.86;35.02;100795.06;4997912;28;20205;-81
2023/04/11 02:55:55;;;;;;;15.70;4.83;;;;;;;41.81;34.95;100782.47;5011136;28;20817;-81
2023/04/11 02:58:24;;;;;;;28.70;5.47;;;;;;;41.98;34.98;100780.69;5010836;28;20251;-80
2023/04/11 03:00:50;;;;;;;11.80;4.43;;;;;;;42.12;35.07;100782.00;5012543;28;20669;-82
2023/04/11 03:03:16;;;;;;;18.40;6.03;;;;;;;42.01;35.17;100794.44;5011124;28;20423;-82
2023/04/11 03:05:42;;;;;;;17.63;5.13;;;;;;;42.01;35.26;100782.75;5011046;28;20185;-81
2023/04/11 03:08:08;;;;;;;12.63;5.60;;;;;;;42.07;35.35;100775.97;5011026;28;20484;-81
2023/04/11 03:10:34;;;;;;;13.33;5.00;;;;;;;41.89;34.93;100790.91;5011016;28;20424;-82
2023/04/11 03:13:00;;;;;;;16.83;5.27;;;;;;;41.93;35.20;100783.63;5010129;28;20466;-81
2023/04/11 03:15:26;;;;;;;13.07;5.23;;;;;;;41.91;35.55;100785.91;5010970;28;20480;-81
2023/04/11 03:17:52;;;;;;;13.87;4.97;;;;;;;41.92;35.62;100782.84;5011010;28;20658;-81
2023/04/11 03:20:19;;;;;;;15.43;6.97;;;;;;;41.86;35.67;100782.25;5011037;28;20472;-81
2023/04/11 03:22:45;;;;;;;14.93;4.83;;;;;;;41.64;35.77;100782.59;5010501;28;20452;-81
2023/04/11 03:25:11;;;;;;;22.93;6.70;;;;;;;41.74;35.93;100779.50;5010704;28;20872;-82
2023/04/11 03:27:37;;;;;;;15.83;5.97;;;;;;;41.60;36.20;100782.47;5011778;28;20916;-83
2023/04/11 03:30:04;;;;;;;10.83;4.90;;;;;;;41.79;36.30;100773.03;5016054;28;20439;-84
2023/04/11 03:32:30;;;;;;;13.10;5.40;;;;;;;41.81;35.40;100776.25;5009376;28;20192;-83
2023/04/11 03:34:59;;;;;;;13.43;4.20;;;;;;;41.81;35.21;100792.59;5010967;28;20517;-83
2023/04/11 03:37:25;;;;;;;17.73;6.10;;;;;;;41.78;35.50;100783.13;5010531;28;20546;-83
2023/04/11 03:39:51;;;;;;;14.87;6.53;;;;;;;41.88;35.27;100764.78;5010809;28;20435;-83
2023/04/11 03:42:17;;;;;;;11.50;5.40;;;;;;;41.98;35.61;100772.53;5011009;28;20294;-83
2023/04/11 03:44:43;;;;;;;14.10;5.03;;;;;;;41.77;35.57;100778.81;5011005;28;20823;-83
2023/04/11 03:47:09;;;;;;;15.30;4.70;;;;;;;41.77;35.64;100784.28;5010854;28;20796;-83
2023/04/11 03:49:35;;;;;;;9.80;5.40;;;;;;;41.75;35.60;100792.00;5016128;28;20181;-84
2023/04/11 03:52:01;;;;;;;13.57;4.90;;;;;;;41.86;35.22;100795.88;5009734;28;20798;-81
2023/04/11 03:54:27;;;;;;;14.30;6.40;;;;;;;41.80;35.50;100794.47;5006035;28;20365;-81
2023/04/11 03:56:53;;;;;;;15.93;5.10;;;;;;;41.68;35.61;100797.16;5015725;28;20200;-81
2023/04/11 03:59:19;;;;;;;11.63;5.03;;;;;;;41.73;35.47;100802.38;5014299;28;20216;-81
2023/04/11 04:01:45;;;;;;;13.77;4.13;;;;;;;41.70;35.54;100810.44;5009293;28;20888;-81
2023/04/11 04:04:11;;;;;;;14.63;5.60;;;;;;;41.86;35.39;100803.25;5007778;28;20440;-81
2023/04/11 04:06:37;;;;;;;22.50;5.13;;;;;;;41.82;35.23;100811.31;5013987;28;20431;-81
2023/04/11 04:09:03;;;;;;;16.37;4.90;;;;;;;42.03;35.28;100803.09;5014471;28;20428;-81
2023/04/11 04:11:29;;;;;;;15.80;5.30;;;;;;;41.99;34.65;100802.19;5014194;28;20456;-81
2023/04/11 04:13:55;;;;;;;13.90;5.47;;;;;;;42.01;35.09;100808.09;5014316;28;20463;-81
2023/04/11 04:16:21;;;;;;;10.00;4.40;;;;;;;42.02;35.05;100806.94;5013038;28;20472;-81
2023/04/11 04:18:47;;;;;;;12.50;3.77;;;;;;;41.87;35.09;100810.31;5015817;28;20474;-83
2023/04/11 04:21:14;;;;;;;13.53;6.40;;;;;;;41.88;35.38;100805.66;5013371;28;20427;-81
2023/04/11 04:23:46;;;;;;;14.07;6.53;;;;;;;41.84;35.45;100800.06;5015375;28;20489;-81
2023/04/11 04:26:15;;;;;;;15.60;5.40;;;;;;;41.99;34.83;100820.44;5013915;28;20417;-81
2023/04/11 04:28:44;;;;;;;11.07;5.77;;;;;;;41.97;34.95;100811.81;5013780;28;20450;-81
2023/04/11 04:31:11;;;;;;;18.67;5.20;;;;;;;41.99;34.93;100806.81;5013985;28;20531;-83
2023/04/11 04:33:41;;;;;;;15.07;7.40;;;;;;;42.12;34.90;100809.25;5013579;28;20488;-83
2023/04/11 04:36:09;;;;;;;15.90;5.43;;;;;;;42.25;34.68;100807.38;5013993;28;20420;-83
2023/04/11 04:38:37;;;;;;;15.17;4.37;;;;;;;42.18;34.94;100803.63;5013274;28;20451;-83
2023/04/11 04:41:05;;;;;;;14.13;7.23;;;;;;;42.08;35.24;100808.31;5013790;28;20529;-83
2023/04/11 04:43:32;;;;;;;14.70;5.30;;;;;;;41.86;35.19;100798.59;5014823;28;20952;-84
2023/04/11 04:45:57;;;;;;;16.33;5.97;;;;;;;41.93;35.17;100799.97;5013686;28;20427;-83
2023/04/11 04:48:24;;;;;;;17.70;5.53;;;;;;;42.00;35.21;100800.25;5013270;28;20444;-83
2023/04/11 04:50:50;;;;;;;11.73;5.00;;;;;;;41.96;35.21;100802.84;5013713;28;20775;-83
2023/04/11 04:53:16;;;;;;;24.23;6.47;;;;;;;41.89;35.12;100807.25;5000162;28;20548;-83
2023/04/11 04:55:42;;;;;;;15.30;5.17;;;;;;;41.92;34.73;100801.91;5013238;28;20531;-82
2023/04/11 04:58:08;;;;;;;14.73;4.90;;;;;;;41.84;35.03;100817.22;5013199;28;20337;-81
2023/04/11 05:00:34;;;;;;;11.70;4.90;;;;;;;41.89;34.83;100807.25;5012585;28;20240;-81
2023/04/11 05:03:04;;;;;;;20.23;6.73;;;;;;;41.95;35.69;100812.16;5001254;28;20209;-83
2023/04/11 05:05:31;;;;;;;22.67;6.10;;;;;;;41.89;34.91;100802.59;5013310;28;20189;-83
2023/04/11 05:07:56;;;;;;;14.90;4.87;;;;;;;42.29;34.71;100810.22;5013121;28;20980;-83
2023/04/11 05:10:22;;;;;;;14.17;5.27;;;;;;;42.32;34.62;100795.91;5013197;28;20431;-83
2023/04/11 05:12:48;;;;;;;13.10;4.70;;;;;;;42.38;34.79;100805.47;5012974;28;20296;-82
2023/04/11 05:15:14;;;;;;;11.73;3.83;;;;;;;42.44;34.64;100797.88;5013121;28;20472;-83
2023/04/11 05:17:41;;;;;;;14.53;5.33;;;;;;;42.44;34.94;100803.31;5004003;28;20633;-82
2023/04/11 05:20:08;;;;;;;11.17;5.53;;;;;;;42.42;35.44;100805.56;4994675;28;20480;-82
2023/04/11 05:22:34;;;;;;;16.87;6.27;;;;;;;42.46;35.25;100798.31;4996694;28;20421;-80
2023/04/11 05:25:00;;;;;;;24.90;6.30;;;;;;;42.31;35.09;100802.50;5004879;28;20423;-81
2023/04/11 05:27:26;;;;;;;11.63;4.37;;;;;;;42.30;34.35;100807.16;4998498;28;20420;-81
2023/04/11 05:29:53;;;;;;;19.50;5.73;;;;;;;42.37;34.91;100814.78;4992763;28;20421;-82
2023/04/11 05:32:19;;;;;;;13.47;5.30;;;;;;;42.32;35.05;100806.81;5007540;28;20272;-81
2023/04/11 05:34:53;;;;;;;17.50;6.17;;;;;;;42.28;35.00;100814.06;5012578;28;20547;-81
2023/04/11 05:37:19;;;;;;;22.83;7.70;;;;;;;42.31;35.07;100818.88;5012651;28;20936;-81
2023/04/11 05:39:46;;;;;;;13.10;6.27;;;;;;;42.31;35.22;100816.13;5014116;28;20417;-83
2023/04/11 05:42:12;;;;;;;21.93;7.53;;;;;;;42.26;35.28;100814.41;5012196;28;20507;-82
2023/04/11 05:45:00;;;;;;;21.00;7.03;;;;;;;42.28;34.89;100816.81;5013391;28;20536;-82
2023/04/11 05:47:25;;;;;;;13.20;4.70;;;;;;;42.39;34.02;100813.31;5012435;28;20723;-82
2023/04/11 05:49:51;;;;;;;20.80;7.57;;;;;;;42.48;34.37;100810.50;5012383;28;20417;-81
2023/04/11 05:52:17;;;;;;;14.53;4.23;;;;;;;42.42;34.35;100811.84;4992890;28;20186;-82
2023/04/11 05:54:43;;;;;;;19.00;4.90;;;;;;;42.51;34.27;100809.00;5006238;28;20652;-82
2023/04/11 05:57:09;;;;;;;14.33;4.30;;;;;;;42.44;34.38;100808.78;5012169;28;20245;-83
2023/04/11 05:59:35;;;;;;;13.60;5.27;;;;;;;42.40;34.73;100817.63;5012074;28;20565;-84
2023/04/11 06:02:01;;;;;;;16.97;5.53;;;;;;;42.33;34.49;100819.31;5012263;28;20181;-86
2023/04/11 06:04:27;;;;;;;10.77;4.50;;;;;;;42.40;34.62;100819.56;5012194;28;20495;-85
2023/04/11 06:06:53;;;;;;;13.27;4.83;;;;;;;42.43;34.31;100818.88;5012236;28;20799;-85
2023/04/11 06:09:19;;;;;;;13.93;6.53;;;;;;;42.49;34.27;100822.97;5011865;28;20689;-85
2023/04/11 06:11:45;;;;;;;12.03;7.67;;;;;;;42.43;34.48;100826.28;5011701;28;20426;-84
2023/04/11 06:14:11;;;;;;;10.53;4.90;;;;;;;42.19;34.97;100827.81;5011901;28;20460;-84
2023/04/11 06:16:37;;;;;;;15.67;6.47;;;;;;;42.31;35.29;100832.50;5011954;28;20476;-83
2023/04/11 06:19:04;;;;;;;15.13;7.57;;;;;;;42.41;35.04;100832.03;5011383;28;20431;-87
2023/04/11 06:21:31;;;;;;;25.67;9.83;;;;;;;42.37;35.22;100829.22;5003128;28;20425;-85
2023/04/11 06:24:07;;;;;;;18.43;6.70;;;;;;;42.24;35.48;100846.69;4992308;28;20426;-87
2023/04/11 06:26:33;;;;;;;24.37;7.97;;;;;;;42.11;36.33;100848.56;5010732;28;20428;-87
2023/04/11 06:28:59;;;;;;;19.60;7.07;;;;;;;42.11;36.19;100850.44;5011832;28;20428;-87
2023/04/11 06:31:25;;;;;;;19.90;7.33;;;;;;;42.07;35.90;100863.16;5009241;28;20428;-82
2023/04/11 06:33:51;;;;;;;17.20;8.67;;;;;;;42.06;36.09;100856.13;5012440;28;20518;-86
2023/04/11 06:36:16;;;;;;;14.00;6.47;;;;;;;41.93;36.57;100857.19;5011674;28;20421;-83
2023/04/11 06:38:42;;;;;;;22.37;6.93;;;;;;;41.87;36.55;100856.63;5011535;28;20196;-84
2023/04/11 06:41:08;;;;;;;14.43;6.10;;;;;;;41.79;36.40;100861.00;5008848;28;20288;-84
2023/04/11 06:43:34;;;;;;;17.33;7.03;;;;;;;41.80;36.42;100859.06;5010960;28;20421;-84
2023/04/11 06:46:00;;;;;;;14.97;6.50;;;;;;;41.58;36.42;100857.47;5006579;28;20642;-84
2023/04/11 06:48:26;;;;;;;14.40;4.80;;;;;;;41.51;36.22;100854.47;5000074;28;20244;-84
2023/04/11 06:50:52;;;;;;;15.70;5.10;;;;;;;41.59;36.26;100864.50;5001227;28;20560;-83
2023/04/11 06:53:18;;;;;;;13.30;4.93;;;;;;;41.75;36.23;100865.53;4993619;28;20467;-84
2023/04/11 06:55:48;;;;;;;20.17;6.07;;;;;;;41.54;36.31;100856.53;5010881;28;20295;-84
2023/04/11 06:58:15;;;;;;;9.60;5.63;;;;;;;41.64;36.16;100869.75;5011049;28;20181;-82
2023/04/11 07:00:41;;;;;;;17.43;7.07;;;;;;;41.83;35.46;100870.09;5011220;28;20437;-83
2023/04/11 07:03:07;;;;;;;15.67;6.00;;;;;;;41.55;35.73;100869.00;5011117;28;20444;-83
2023/04/11 07:05:37;;;;;;;20.00;5.80;;;;;;;41.63;35.02;100872.81;5011239;28;20421;-83
2023/04/11 07:08:03;;;;;;;14.27;6.17;;;;;;;41.62;36.02;100874.75;5011079;28;20547;-84
2023/04/11 07:10:28;;;;;;;10.63;4.63;;;;;;;41.74;35.60;100885.75;5010949;28;20523;-84
2023/04/11 07:12:54;;;;;;;12.33;6.93;;;;;;;41.67;35.76;100888.13;4997969;28;20491;-84
2023/04/11 07:15:22;;;;;;;19.00;5.73;;;;;;;41.63;35.94;100887.22;5018843;28;20463;-84
2023/04/11 07:17:48;;;;;;;11.63;4.70;;;;;;;41.81;34.85;100880.56;5014232;28;20411;-84
2023/04/11 07:20:15;;;;;;;17.00;6.40;;;;;;;41.51;35.52;100887.94;5014479;28;20518;-84
2023/04/11 07:22:44;;;;;;;15.30;7.17;;;;;;;41.99;35.04;100899.47;5001959;28;20434;-83
2023/04/11 07:25:10;;;;;;;19.57;6.50;;;;;;;41.80;35.69;100908.91;5018391;28;20952;-84
2023/04/11 07:27:36;;;;;;;21.30;5.60;;;;;;;41.85;35.15;100918.81;5018394;28;20423;-85
2023/04/11 07:30:03;;;;;;;19.63;6.10;;;;;;;41.88;35.27;100920.88;5018143;28;20423;-83
2023/04/11 07:32:29;;;;;;;11.80;5.93;;;;;;;41.89;35.07;100921.69;5035421;28;20184;-84
2023/04/11 07:34:55;;;;;;;20.97;7.83;;;;;;;41.61;35.37;100930.31;5014353;28;20451;-84
2023/04/11 07:37:21;;;;;;;13.30;6.13;;;;;;;41.95;35.06;100933.97;5017970;28;21037;-83
2023/04/11 07:39:48;;;;;;;19.93;5.23;;;;;;;41.94;35.33;100937.84;5018271;28;20419;-85
2023/04/11 07:42:14;;;;;;;20.10;5.40;;;;;;;41.90;35.55;100943.13;4999566;28;20653;-83
2023/04/11 07:44:40;;;;;;;15.80;5.33;;;;;;;42.08;35.31;100958.22;4998692;28;20444;-83
2023/04/11 07:47:06;;;;;;;18.53;5.27;;;;;;;42.06;35.09;100955.03;4997720;28;20928;-83
2023/04/11 07:49:31;;;;;;;12.90;5.10;;;;;;;41.99;35.57;100960.22;5009733;28;20196;-84
2023/04/11 07:51:57;;;;;;;14.23;5.83;;;;;;;42.23;35.16;100964.22;5012590;28;20423;-84
2023/04/11 07:54:27;;;;;;;16.60;6.93;;;;;;;41.98;35.40;100968.72;5009101;28;20580;-82
2023/04/11 07:56:53;;;;;;;14.80;7.70;;;;;;;42.05;35.35;100972.53;5017670;28;20938;-82
2023/04/11 07:59:19;;;;;;;13.30;7.10;;;;;;;42.04;35.26;100978.28;5017541;28;20510;-85
2023/04/11 08:01:45;;;;;;;18.63;7.30;;;;;;;42.00;35.05;100977.38;5012717;28;20499;-83
2023/04/11 08:04:11;;;;;;;15.13;6.27;;;;;;;42.13;35.22;100985.28;5016076;28;20471;-82
2023/04/11 08:06:37;;;;;;;11.73;5.33;;;;;;;42.22;34.62;100985.22;5015476;28;20419;-86
2023/04/11 08:09:04;;;;;;;15.20;6.90;;;;;;;42.29;35.23;100990.94;5017714;28;20192;-87
2023/04/11 08:11:30;;;;;;;16.33;7.90;;;;;;;41.99;35.26;100978.47;5012146;28;20801;-86
2023/04/11 08:13:56;;;;;;;14.50;6.57;;;;;;;42.24;35.03;100993.88;5010331;28;20447;-87
2023/04/11 08:16:22;;;;;;;17.30;7.90;;;;;;;42.22;34.87;101006.25;5017207;28;20482;-87
2023/04/11 08:18:48;;;;;;;15.80;6.30;;;;;;;42.16;35.25;100999.38;5017859;28;20598;-79
2023/04/11 08:21:14;;;;;;;12.63;6.27;;;;;;;42.31;35.06;100998.81;5017012;28;20507;-85
2023/04/11 08:23:40;;;;;;;20.60;6.60;;;;;;;42.50;34.92;101006.50;5017709;28;20485;-86
2023/04/11 08:26:08;;;;;;;16.50;6.70;;;;;;;42.41;35.08;101009.28;5017416;28;20502;-87
2023/04/11 08:28:35;;;;;;;12.07;6.37;;;;;;;42.50;35.11;101007.28;5017474;28;20416;-88
2023/04/11 08:31:02;;;;;;;18.70;6.97;;;;;;;42.25;35.18;101011.84;5016965;28;20419;-87
2023/04/11 08:33:28;;;;;;;20.53;5.90;;;;;;;42.42;35.00;101016.34;5017359;28;20888;-89
2023/04/11 08:35:54;;;;;;;17.67;6.47;;;;;;;42.42;34.92;101010.06;5016431;28;20947;-89
2023/04/11 08:38:20;;;;;;;13.00;4.47;;;;;;;42.37;34.52;101014.63;5017419;28;20435;-87
2023/04/11 08:40:46;;;;;;;15.47;5.50;;;;;;;42.20;34.94;101019.41;5017095;28;20421;-89
2023/04/11 08:43:12;;;;;;;15.90;6.53;;;;;;;42.23;34.69;101016.81;5016575;28;20180;-89
2023/04/11 08:45:39;;;;;;;11.03;4.03;;;;;;;42.27;34.59;101023.19;5004452;28;20204;-87
2023/04/11 08:48:06;;;;;;;13.40;5.27;;;;;;;42.24;34.93;101015.69;5017336;28;20431;-88
2023/04/11 08:50:34;;;;;;;16.93;5.47;;;;;;;42.38;35.02;101018.94;5016452;28;20569;-87
2023/04/11 08:53:03;;;;;;;15.47;5.03;;;;;;;42.45;34.88;101023.84;5003886;28;20463;-86
2023/04/11 08:55:32;;;;;;;18.37;4.60;;;;;;;42.58;34.73;101024.72;5004085;28;20514;-83
2023/04/11 08:58:01;;;;;;;18.93;5.53;;;;;;;42.61;34.55;101024.88;5034465;28;20435;-83
2023/04/11 09:00:31;;;;;;;13.67;5.67;;;;;;;42.47;33.94;101020.78;5034622;28;20415;-83
2023/04/11 09:03:02;;;;;;;15.70;4.70;;;;;;;42.16;34.06;101029.34;5003422;28;20452;-84
2023/04/11 09:05:32;;;;;;;18.97;5.43;;;;;;;42.47;34.04;101028.97;5016543;28;20489;-84
2023/04/11 09:08:00;;;;;;;22.50;6.03;;;;;;;42.60;33.75;101025.19;5034149;28;20427;-85
2023/04/11 09:10:27;;;;;;;14.77;5.07;;;;;;;42.75;34.06;101032.75;5016411;28;20529;-85
2023/04/11 09:12:54;;;;;;;22.30;4.90;;;;;;;42.42;34.36;101029.16;5016188;28;20868;-86
2023/04/11 09:15:21;;;;;;;13.13;5.00;;;;;;;42.07;35.19;101026.69;5034179;28;20858;-86
2023/04/11 09:17:48;;;;;;;19.90;6.10;;;;;;;42.39;34.74;101025.19;5020919;28;20423;-86
2023/04/11 09:20:28;;;;;;;20.27;6.67;;;;;;;42.31;34.52;101040.50;5016370;28;20947;-84
2023/04/11 09:22:54;;;;;;;17.50;8.23;;;;;;;42.49;34.46;101043.88;5002794;28;20441;-84
2023/04/11 09:25:22;;;;;;;17.63;7.67;;;;;;;42.66;34.40;101048.41;5016332;28;20489;-84
2023/04/11 09:27:49;;;;;;;17.53;7.37;;;;;;;42.80;34.16;101038.00;5016066;28;20443;-84
2023/04/11 09:30:25;;;;;;;10.50;5.70;;;;;;;42.80;34.54;101053.59;5015863;28;20430;-84
2023/04/11 09:32:52;;;;;;;12.57;4.83;;;;;;;42.57;33.79;101040.31;5004201;28;20476;-86
2023/04/11 09:35:23;;;;;;;26.63;9.57;;;;;;;42.61;33.44;101046.69;5012370;28;20993;-85
2023/04/11 09:38:02;;;;;;;11.90;4.40;;;;;;;42.61;33.51;101052.16;5007316;28;20421;-85
2023/04/11 09:40:32;;;;;;;24.67;4.70;;;;;;;42.70;33.53;101041.16;4999405;28;20426;-83
2023/04/11 09:43:00;;;;;;;12.80;4.80;;;;;;;43.01;33.39;101056.28;5015768;28;20467;-84
2023/04/11 09:45:28;;;;;;;10.53;3.93;;;;;;;43.02;33.29;101045.03;5015196;28;20442;-85
2023/04/11 09:47:55;;;;;;;15.73;6.07;;;;;;;43.07;33.21;101041.28;5015925;28;20419;-86
2023/04/11 09:50:22;;;;;;;18.70;6.00;;;;;;;42.89;33.38;101049.63;5015291;28;20521;-84
2023/04/11 09:52:49;;;;;;;12.80;5.13;;;;;;;42.87;32.61;101042.91;5003374;28;20428;-85
2023/04/11 09:55:20;;;;;;;17.07;6.53;;;;;;;42.82;33.11;101048.59;5013712;28;20474;-85
2023/04/11 09:57:48;;;;;;;14.60;4.93;;;;;;;42.99;33.19;101047.66;5015633;28;20423;-86
2023/04/11 10:00:20;;;;;;;15.43;7.07;;;;;;;42.83;33.57;101050.16;5015170;28;20447;-86
2023/04/11 10:02:49;;;;;;;26.30;6.43;;;;;;;42.98;32.95;101043.28;5032928;28;20950;-87
2023/04/11 10:05:17;;;;;;;13.17;5.97;;;;;;;42.82;32.75;101043.91;5002848;28;20455;-87
2023/04/11 10:08:03;;;;;;;12.57;5.20;;;;;;;42.85;32.79;101037.81;5014813;28;20436;-86
2023/04/11 10:10:29;;;;;;;20.90;7.37;;;;;;;42.92;33.05;101031.78;5015209;28;20428;-87
2023/04/11 10:12:55;;;;;;;19.50;9.30;;;;;;;42.83;31.52;101031.88;5001600;28;20518;-87
2023/04/11 10:15:21;;;;;;;17.67;6.10;;;;;;;42.91;32.10;101005.63;5011719;28;20567;-87
2023/04/11 10:18:11;;;;;;;9.57;4.90;;;;;;;43.04;31.99;101034.59;5011647;28;20490;-87
2023/04/11 10:20:42;;;;;;;13.40;6.50;;;;;;;43.08;31.08;101035.47;5011626;28;20966;-86
2023/04/11 10:23:09;;;;;;;11.07;6.90;;;;;;;43.05;31.98;101049.03;4999626;28;20956;-86
2023/04/11 10:25:59;;;;;;;15.50;6.17;;;;;;;42.82;32.83;101059.50;5011423;28;21028;-86
2023/04/11 10:28:32;;;;;;;14.50;4.33;;;;;;;43.23;32.29;101063.28;5011978;28;20523;-87
2023/04/11 10:31:00;;;;;;;14.10;4.77;;;;;;;43.23;31.77;101069.53;5006156;28;20817;-87
2023/04/11 10:33:26;;;;;;;15.60;3.70;;;;;;;43.23;31.27;101075.00;5003585;28;20464;-87
2023/04/11 10:36:11;;;;;;;15.03;6.20;;;;;;;43.23;31.03;101076.94;5012683;28;20450;-88
2023/04/11 10:38:40;;;;;;;11.83;4.97;;;;;;;43.26;31.06;101077.03;5011452;28;20466;-85
2023/04/11 10:41:27;;;;;;;11.07;5.97;;;;;;;43.22;31.38;101064.41;5011536;28;20420;-88
2023/04/11 10:44:12;;;;;;;15.33;5.30;;;;;;;43.29;31.41;101059.19;5011235;28;20487;-88
2023/04/11 10:46:52;;;;;;;16.30;5.70;;;;;;;43.36;31.67;101049.31;5011512;28;20482;-87
2023/04/11 10:49:35;;;;;;;14.13;5.53;;;;;;;43.12;31.56;101054.72;5001250;28;20433;-86
2023/04/11 10:52:20;;;;;;;10.37;4.93;;;;;;;43.38;31.21;101046.22;5005740;28;20996;-86
2023/04/11 10:54:47;;;;;;;11.60;4.83;;;;;;;43.41;31.58;101032.72;5005662;28;20452;-87
2023/04/11 10:57:13;;;;;;;10.47;4.30;;;;;;;43.42;31.27;101026.13;5010765;28;20424;-88
2023/04/11 10:59:39;;;;;;;12.90;5.50;;;;;;;43.46;31.45;101020.75;5011329;28;20959;-86
2023/04/11 11:02:05;;;;;;;11.20;4.23;;;;;;;43.55;31.41;101020.66;5011511;28;20424;-86
2023/04/11 11:04:36;;;;;;;8.57;4.20;;;;;;;43.39;31.78;101018.59;5011278;28;20209;-78
2023/04/11 11:07:03;;;;;;;13.50;5.17;;;;;;;43.25;31.87;101018.09;4995137;28;20475;-80
2023/04/11 11:09:30;;;;;;;13.47;6.33;;;;;;;43.20;31.96;101012.88;5011127;28;20619;-79
2023/04/11 11:12:11;;;;;;;12.30;4.10;;;;;;;43.19;32.00;100992.97;4991734;28;20421;-83
2023/04/11 11:14:39;;;;;;;9.70;3.33;;;;;;;43.23;30.83;100987.63;5008473;28;20462;-79
2023/04/11 11:17:05;;;;;;;11.60;3.80;;;;;;;43.31;31.26;101000.38;5014280;28;20815;-79
2023/04/11 11:19:32;;;;;;;12.60;4.20;;;;;;;43.22;31.62;100998.88;5013971;28;20519;-79